sensor_id;sensor_type;location;lat;lon;timestamp;temperature;humidity
7572;DHT22;3827;49.928;8.548;2024-01-15T00:00:38;-2.40;99.90
7572;DHT22;3827;49.928;8.548;2024-01-15T00:03:05;-2.50;99.90
7572;DHT22;3827;49.928;8.548;2024-01-15T00:05:33;-2.50;99.90
7572;DHT22;3827;49.928;8.548;2024-01-15T00:08:00;-2.50;99.90
7572;DHT22;3827;49.928;8.548;2024-01-15T00:10:26;-2.50;99.90
7572;DHT22;3827;49.928;8.548;2024-01-15T00:12:53;-2.40;99.90
7572;DHT22;3827;49.928;8.548;2024-01-15T00:15:20;-1.30;99.90
7572;DHT22;3827;49.928;8.548;2024-01-15T00:17:47;-2.60;99.90
7572;DHT22;3827;49.928;8.548;2024-01-15T00:20:14;-2.00;99.90
7572;DHT22;3827;49.928;8.548;2024-01-15T00:22:42;-2.30;99.90
7572;DHT22;3827;49.928;8.548;2024-01-15T00:25:09;-2.40;99.90
7572;DHT22;3827;49.928;8.548;2024-01-15T00:27:36;-2.40;99.90
7572;DHT22;3827;49.928;8.548;2024-01-15T00:30:03;-2.40;99.90
7572;DHT22;3827;49.928;8.548;2024-01-15T00:32:31;-2.50;99.90
7572;DHT22;3827;49.928;8.548;2024-01-15T00:34:57;-2.40;99.90
7572;DHT22;3827;49.928;8.548;2024-01-15T00:37:24;-2.40;99.90
7572;DHT22;3827;49.928;8.548;2024-01-15T00:39:52;-2.20;99.90
7572;DHT22;3827;49.928;8.548;2024-01-15T00:42:19;-2.30;99.90
7572;DHT22;3827;49.928;8.548;2024-01-15T00:44:46;-2.40;99.90
7572;DHT22;3827;49.928;8.548;2024-01-15T00:47:13;-2.40;99.90
7572;DHT22;3827;49.928;8.548;2024-01-15T00:49:40;-2.40;99.90
7572;DHT22;3827;49.928;8.548;2024-01-15T00:52:06;-2.40;99.90
7572;DHT22;3827;49.928;8.548;2024-01-15T00:54:33;-2.40;99.90
7572;DHT22;3827;49.928;8.548;2024-01-15T00:57:01;-2.40;99.90
7572;DHT22;3827;49.928;8.548;2024-01-15T00:59:28;-2.40;99.90
7572;DHT22;3827;49.928;8.548;2024-01-15T01:01:55;-2.40;99.90
7572;DHT22;3827;49.928;8.548;2024-01-15T01:04:22;-2.50;99.90
7572;DHT22;3827;49.928;8.548;2024-01-15T01:06:49;-2.40;99.90
7572;DHT22;3827;49.928;8.548;2024-01-15T01:09:16;-2.40;99.90
7572;DHT22;3827;49.928;8.548;2024-01-15T01:11:42;-2.30;99.90
7572;DHT22;3827;49.928;8.548;2024-01-15T01:14:10;-2.40;99.90
7572;DHT22;3827;49.928;8.548;2024-01-15T01:16:37;-2.40;99.90
7572;DHT22;3827;49.928;8.548;2024-01-15T01:19:05;-2.30;99.90
7572;DHT22;3827;49.928;8.548;2024-01-15T01:21:33;-2.20;99.90
7572;DHT22;3827;49.928;8.548;2024-01-15T01:23:59;-2.10;99.90
7572;DHT22;3827;49.928;8.548;2024-01-15T01:26:26;-2.10;99.90
7572;DHT22;3827;49.928;8.548;2024-01-15T01:28:53;-2.00;99.90
7572;DHT22;3827;49.928;8.548;2024-01-15T01:31:23;-2.10;99.90
7572;DHT22;3827;49.928;8.548;2024-01-15T01:33:49;-2.20;99.90
7572;DHT22;3827;49.928;8.548;2024-01-15T01:36:16;-2.20;99.90
7572;DHT22;3827;49.928;8.548;2024-01-15T01:38:43;-2.20;99.90
7572;DHT22;3827;49.928;8.548;2024-01-15T01:41:10;-1.90;99.90
7572;DHT22;3827;49.928;8.548;2024-01-15T01:43:36;-1.90;99.90
7572;DHT22;3827;49.928;8.548;2024-01-15T01:46:03;-2.10;99.90
7572;DHT22;3827;49.928;8.548;2024-01-15T01:48:33;-2.00;99.90
7572;DHT22;3827;49.928;8.548;2024-01-15T01:51:02;-1.90;99.90
7572;DHT22;3827;49.928;8.548;2024-01-15T01:53:29;-1.90;99.90
7572;DHT22;3827;49.928;8.548;2024-01-15T01:55:57;-2.00;99.90
7572;DHT22;3827;49.928;8.548;2024-01-15T01:58:25;-1.90;99.90
7572;DHT22;3827;49.928;8.548;2024-01-15T02:00:53;-2.10;99.90
7572;DHT22;3827;49.928;8.548;2024-01-15T02:03:20;-1.90;99.90
7572;DHT22;3827;49.928;8.548;2024-01-15T02:05:49;-2.10;99.90
7572;DHT22;3827;49.928;8.548;2024-01-15T02:08:16;-2.00;99.90
7572;DHT22;3827;49.928;8.548;2024-01-15T02:10:43;-2.00;99.90
7572;DHT22;3827;49.928;8.548;2024-01-15T02:13:09;-1.90;99.90
7572;DHT22;3827;49.928;8.548;2024-01-15T02:15:36;-2.00;99.90
7572;DHT22;3827;49.928;8.548;2024-01-15T02:18:05;-2.00;99.90
7572;DHT22;3827;49.928;8.548;2024-01-15T02:20:33;-1.90;99.90
7572;DHT22;3827;49.928;8.548;2024-01-15T02:23:11;-2.00;99.90
7572;DHT22;3827;49.928;8.548;2024-01-15T02:25:39;-2.00;99.90
7572;DHT22;3827;49.928;8.548;2024-01-15T02:28:07;-1.80;99.90
7572;DHT22;3827;49.928;8.548;2024-01-15T02:30:37;-2.10;99.90
7572;DHT22;3827;49.928;8.548;2024-01-15T02:33:05;-2.00;99.90
7572;DHT22;3827;49.928;8.548;2024-01-15T02:35:32;-2.00;99.90
7572;DHT22;3827;49.928;8.548;2024-01-15T02:37:59;-2.00;99.90
7572;DHT22;3827;49.928;8.548;2024-01-15T02:40:27;-2.10;99.90
7572;DHT22;3827;49.928;8.548;2024-01-15T02:42:54;-2.00;99.90
7572;DHT22;3827;49.928;8.548;2024-01-15T02:45:21;-2.00;99.90
7572;DHT22;3827;49.928;8.548;2024-01-15T02:47:48;-2.00;99.90
7572;DHT22;3827;49.928;8.548;2024-01-15T02:50:15;-2.00;99.90
7572;DHT22;3827;49.928;8.548;2024-01-15T02:52:43;-1.90;99.90
7572;DHT22;3827;49.928;8.548;2024-01-15T02:55:10;-2.00;99.90
7572;DHT22;3827;49.928;8.548;2024-01-15T02:57:38;-2.00;99.90
7572;DHT22;3827;49.928;8.548;2024-01-15T03:00:05;-1.90;99.90
7572;DHT22;3827;49.928;8.548;2024-01-15T03:02:32;-1.90;99.90
7572;DHT22;3827;49.928;8.548;2024-01-15T03:04:59;-1.80;99.90
7572;DHT22;3827;49.928;8.548;2024-01-15T03:07:28;-1.70;99.90
7572;DHT22;3827;49.928;8.548;2024-01-15T03:09:54;-1.90;99.90
7572;DHT22;3827;49.928;8.548;2024-01-15T03:12:21;-1.90;99.90
7572;DHT22;3827;49.928;8.548;2024-01-15T03:14:49;-1.80;99.90
7572;DHT22;3827;49.928;8.548;2024-01-15T03:17:16;-1.90;99.90
7572;DHT22;3827;49.928;8.548;2024-01-15T03:19:43;-1.90;99.90
7572;DHT22;3827;49.928;8.548;2024-01-15T03:22:09;-1.90;99.90
7572;DHT22;3827;49.928;8.548;2024-01-15T03:24:36;-1.70;99.90
7572;DHT22;3827;49.928;8.548;2024-01-15T03:27:03;-1.90;99.90
7572;DHT22;3827;49.928;8.548;2024-01-15T03:29:30;-2.00;99.90
7572;DHT22;3827;49.928;8.548;2024-01-15T03:31:58;-1.90;99.90
7572;DHT22;3827;49.928;8.548;2024-01-15T03:34:25;-1.90;99.90
7572;DHT22;3827;49.928;8.548;2024-01-15T03:36:52;-1.90;99.90
7572;DHT22;3827;49.928;8.548;2024-01-15T03:39:18;-2.00;99.90
7572;DHT22;3827;49.928;8.548;2024-01-15T03:41:45;-1.90;99.90
7572;DHT22;3827;49.928;8.548;2024-01-15T03:44:12;-1.90;99.90
7572;DHT22;3827;49.928;8.548;2024-01-15T03:46:39;-1.90;99.90
7572;DHT22;3827;49.928;8.548;2024-01-15T03:49:07;-2.00;99.90
7572;DHT22;3827;49.928;8.548;2024-01-15T03:51:34;-1.90;99.90
7572;DHT22;3827;49.928;8.548;2024-01-15T03:54:00;-1.80;99.90
7572;DHT22;3827;49.928;8.548;2024-01-15T03:56:27;-2.00;99.90
7572;DHT22;3827;49.928;8.548;2024-01-15T03:58:54;-1.90;99.90
7572;DHT22;3827;49.928;8.548;2024-01-15T04:01:20;-1.80;99.90
7572;DHT22;3827;49.928;8.548;2024-01-15T04:03:47;-1.90;99.90
7572;DHT22;3827;49.928;8.548;2024-01-15T04:06:15;-1.90;99.90
7572;DHT22;3827;49.928;8.548;2024-01-15T04:08:42;-1.90;99.90
7572;DHT22;3827;49.928;8.548;2024-01-15T04:11:09;-1.80;99.90
7572;DHT22;3827;49.928;8.548;2024-01-15T04:13:35;-1.80;99.90
7572;DHT22;3827;49.928;8.548;2024-01-15T04:16:02;-1.80;99.90
7572;DHT22;3827;49.928;8.548;2024-01-15T04:18:29;-1.70;99.90
7572;DHT22;3827;49.928;8.548;2024-01-15T04:20:56;-1.80;99.90
7572;DHT22;3827;49.928;8.548;2024-01-15T04:23:24;-1.50;99.90
7572;DHT22;3827;49.928;8.548;2024-01-15T04:25:51;-1.60;99.90
7572;DHT22;3827;49.928;8.548;2024-01-15T04:28:17;-1.70;99.90
7572;DHT22;3827;49.928;8.548;2024-01-15T04:30:44;-1.70;99.90
7572;DHT22;3827;49.928;8.548;2024-01-15T04:33:11;-1.70;99.90
7572;DHT22;3827;49.928;8.548;2024-01-15T04:35:37;-1.80;99.90
7572;DHT22;3827;49.928;8.548;2024-01-15T04:38:04;-1.50;99.90
7572;DHT22;3827;49.928;8.548;2024-01-15T04:40:32;-1.60;99.90
7572;DHT22;3827;49.928;8.548;2024-01-15T04:42:59;-1.70;99.90
7572;DHT22;3827;49.928;8.548;2024-01-15T04:45:26;-1.70;99.90
7572;DHT22;3827;49.928;8.548;2024-01-15T04:47:54;-1.70;99.90
7572;DHT22;3827;49.928;8.548;2024-01-15T04:50:22;-1.70;99.90
7572;DHT22;3827;49.928;8.548;2024-01-15T04:52:49;-1.70;99.90
7572;DHT22;3827;49.928;8.548;2024-01-15T04:55:16;-1.50;99.90
7572;DHT22;3827;49.928;8.548;2024-01-15T04:57:44;-1.70;99.90
7572;DHT22;3827;49.928;8.548;2024-01-15T05:00:12;-1.50;99.90
7572;DHT22;3827;49.928;8.548;2024-01-15T05:02:39;-1.60;99.90
7572;DHT22;3827;49.928;8.548;2024-01-15T05:05:06;-1.60;99.90
7572;DHT22;3827;49.928;8.548;2024-01-15T05:07:33;-1.60;99.90
7572;DHT22;3827;49.928;8.548;2024-01-15T05:09:59;-1.40;99.90
7572;DHT22;3827;49.928;8.548;2024-01-15T05:12:26;-1.60;99.90
7572;DHT22;3827;49.928;8.548;2024-01-15T05:14:54;-1.40;99.90
7572;DHT22;3827;49.928;8.548;2024-01-15T05:17:23;-1.60;99.90
7572;DHT22;3827;49.928;8.548;2024-01-15T05:19:50;-1.60;99.90
7572;DHT22;3827;49.928;8.548;2024-01-15T05:22:16;-1.40;99.90
7572;DHT22;3827;49.928;8.548;2024-01-15T05:24:43;-1.60;99.90
7572;DHT22;3827;49.928;8.548;2024-01-15T05:27:10;-1.60;99.90
7572;DHT22;3827;49.928;8.548;2024-01-15T05:29:36;-1.50;99.90
7572;DHT22;3827;49.928;8.548;2024-01-15T05:32:05;-1.30;99.90
7572;DHT22;3827;49.928;8.548;2024-01-15T05:34:32;-1.40;99.90
7572;DHT22;3827;49.928;8.548;2024-01-15T05:36:58;-1.50;99.90
7572;DHT22;3827;49.928;8.548;2024-01-15T05:39:25;-1.50;99.90
7572;DHT22;3827;49.928;8.548;2024-01-15T05:41:52;-1.40;99.90
7572;DHT22;3827;49.928;8.548;2024-01-15T05:44:19;-1.50;99.90
7572;DHT22;3827;49.928;8.548;2024-01-15T05:46:45;-1.50;99.90
7572;DHT22;3827;49.928;8.548;2024-01-15T05:49:13;-1.30;99.90
7572;DHT22;3827;49.928;8.548;2024-01-15T05:51:40;-1.50;99.90
7572;DHT22;3827;49.928;8.548;2024-01-15T05:54:07;-0.10;99.90
7572;DHT22;3827;49.928;8.548;2024-01-15T05:56:34;-1.50;99.90
7572;DHT22;3827;49.928;8.548;2024-01-15T05:59:01;-1.50;99.90
7572;DHT22;3827;49.928;8.548;2024-01-15T06:01:28;-1.40;99.90
7572;DHT22;3827;49.928;8.548;2024-01-15T06:03:54;-1.50;99.90
7572;DHT22;3827;49.928;8.548;2024-01-15T06:06:22;-1.60;99.90
7572;DHT22;3827;49.928;8.548;2024-01-15T06:08:49;-1.70;99.90
7572;DHT22;3827;49.928;8.548;2024-01-15T06:11:16;-1.70;99.90
7572;DHT22;3827;49.928;8.548;2024-01-15T06:13:43;-1.70;99.90
7572;DHT22;3827;49.928;8.548;2024-01-15T06:16:13;-1.80;99.90
7572;DHT22;3827;49.928;8.548;2024-01-15T06:18:41;-1.70;99.90
7572;DHT22;3827;49.928;8.548;2024-01-15T06:21:07;-1.70;99.90
7572;DHT22;3827;49.928;8.548;2024-01-15T06:23:37;-1.70;99.90
7572;DHT22;3827;49.928;8.548;2024-01-15T06:26:04;-1.70;99.90
7572;DHT22;3827;49.928;8.548;2024-01-15T06:28:31;-1.70;99.90
7572;DHT22;3827;49.928;8.548;2024-01-15T06:30:58;-1.70;99.90
7572;DHT22;3827;49.928;8.548;2024-01-15T06:33:25;-1.70;99.90
7572;DHT22;3827;49.928;8.548;2024-01-15T06:35:52;0.50;99.90
7572;DHT22;3827;49.928;8.548;2024-01-15T06:38:19;-1.60;99.90
7572;DHT22;3827;49.928;8.548;2024-01-15T06:40:47;-1.50;99.90
7572;DHT22;3827;49.928;8.548;2024-01-15T06:43:14;-1.60;99.90
7572;DHT22;3827;49.928;8.548;2024-01-15T06:45:41;-1.40;99.90
7572;DHT22;3827;49.928;8.548;2024-01-15T06:48:08;-1.50;99.90
7572;DHT22;3827;49.928;8.548;2024-01-15T06:50:38;-1.50;99.90
7572;DHT22;3827;49.928;8.548;2024-01-15T06:53:05;-1.50;99.90
7572;DHT22;3827;49.928;8.548;2024-01-15T06:55:31;-1.50;99.90
7572;DHT22;3827;49.928;8.548;2024-01-15T06:57:59;-1.50;99.90
7572;DHT22;3827;49.928;8.548;2024-01-15T07:00:26;-1.40;99.90
7572;DHT22;3827;49.928;8.548;2024-01-15T07:02:54;-1.40;99.90
7572;DHT22;3827;49.928;8.548;2024-01-15T07:05:21;-1.30;99.90
7572;DHT22;3827;49.928;8.548;2024-01-15T07:07:47;-1.40;99.90
7572;DHT22;3827;49.928;8.548;2024-01-15T07:10:14;-1.50;99.90
7572;DHT22;3827;49.928;8.548;2024-01-15T07:12:42;-1.40;99.90
7572;DHT22;3827;49.928;8.548;2024-01-15T07:15:10;-1.40;99.90
7572;DHT22;3827;49.928;8.548;2024-01-15T07:17:38;-1.30;99.90
7572;DHT22;3827;49.928;8.548;2024-01-15T07:20:06;-4.30;99.90
7572;DHT22;3827;49.928;8.548;2024-01-15T07:22:34;-1.40;99.90
7572;DHT22;3827;49.928;8.548;2024-01-15T07:25:00;-1.30;99.90
7572;DHT22;3827;49.928;8.548;2024-01-15T07:27:27;-1.30;99.90
7572;DHT22;3827;49.928;8.548;2024-01-15T07:29:54;-0.90;99.90
7572;DHT22;3827;49.928;8.548;2024-01-15T07:32:22;-1.30;99.90
7572;DHT22;3827;49.928;8.548;2024-01-15T07:34:49;-1.20;99.90
7572;DHT22;3827;49.928;8.548;2024-01-15T07:37:15;-1.20;99.90
7572;DHT22;3827;49.928;8.548;2024-01-15T07:39:42;-1.30;99.90
7572;DHT22;3827;49.928;8.548;2024-01-15T07:42:09;-1.30;99.90
7572;DHT22;3827;49.928;8.548;2024-01-15T07:44:36;-1.20;99.90
7572;DHT22;3827;49.928;8.548;2024-01-15T07:47:03;-1.30;99.90
7572;DHT22;3827;49.928;8.548;2024-01-15T07:49:31;-1.20;99.90
7572;DHT22;3827;49.928;8.548;2024-01-15T07:51:58;-1.00;99.90
7572;DHT22;3827;49.928;8.548;2024-01-15T07:54:25;-1.00;99.90
7572;DHT22;3827;49.928;8.548;2024-01-15T07:56:55;-1.10;99.90
7572;DHT22;3827;49.928;8.548;2024-01-15T07:59:22;-1.10;99.90
7572;DHT22;3827;49.928;8.548;2024-01-15T08:01:49;-0.90;99.90
7572;DHT22;3827;49.928;8.548;2024-01-15T08:04:16;-0.80;99.90
7572;DHT22;3827;49.928;8.548;2024-01-15T08:06:44;-1.00;99.90
7572;DHT22;3827;49.928;8.548;2024-01-15T08:09:11;-0.90;99.90
7572;DHT22;3827;49.928;8.548;2024-01-15T08:11:40;-0.90;99.90
7572;DHT22;3827;49.928;8.548;2024-01-15T08:14:08;-0.90;99.90
7572;DHT22;3827;49.928;8.548;2024-01-15T08:16:35;-0.90;99.90
7572;DHT22;3827;49.928;8.548;2024-01-15T08:19:02;-0.80;99.90
7572;DHT22;3827;49.928;8.548;2024-01-15T08:21:29;-0.70;99.90
7572;DHT22;3827;49.928;8.548;2024-01-15T08:23:59;-0.70;99.90
7572;DHT22;3827;49.928;8.548;2024-01-15T08:26:26;-0.60;99.90
7572;DHT22;3827;49.928;8.548;2024-01-15T08:28:53;-1.20;99.90
7572;DHT22;3827;49.928;8.548;2024-01-15T08:31:19;-0.40;99.90
7572;DHT22;3827;49.928;8.548;2024-01-15T08:33:46;-0.40;99.90
7572;DHT22;3827;49.928;8.548;2024-01-15T08:36:13;-0.40;99.90
7572;DHT22;3827;49.928;8.548;2024-01-15T08:38:40;-0.30;99.90
7572;DHT22;3827;49.928;8.548;2024-01-15T08:41:09;-0.30;99.90
7572;DHT22;3827;49.928;8.548;2024-01-15T08:43:36;-0.10;99.90
7572;DHT22;3827;49.928;8.548;2024-01-15T08:46:03;-0.10;99.90
7572;DHT22;3827;49.928;8.548;2024-01-15T08:48:30;-0.20;99.90
7572;DHT22;3827;49.928;8.548;2024-01-15T08:50:56;-0.20;99.90
7572;DHT22;3827;49.928;8.548;2024-01-15T08:53:23;-0.10;99.90
7572;DHT22;3827;49.928;8.548;2024-01-15T08:55:50;-0.10;99.90
7572;DHT22;3827;49.928;8.548;2024-01-15T08:58:18;0.00;99.90
7572;DHT22;3827;49.928;8.548;2024-01-15T09:00:45;-0.20;99.90
7572;DHT22;3827;49.928;8.548;2024-01-15T09:03:12;-0.20;99.90
7572;DHT22;3827;49.928;8.548;2024-01-15T09:05:38;-0.10;99.90
7572;DHT22;3827;49.928;8.548;2024-01-15T09:08:06;-0.20;99.90
7572;DHT22;3827;49.928;8.548;2024-01-15T09:10:33;0.40;99.90
7572;DHT22;3827;49.928;8.548;2024-01-15T09:12:59;-0.10;99.90
7572;DHT22;3827;49.928;8.548;2024-01-15T09:15:28;-0.30;99.90
7572;DHT22;3827;49.928;8.548;2024-01-15T09:17:54;-0.20;99.90
7572;DHT22;3827;49.928;8.548;2024-01-15T09:20:23;0.00;99.90
7572;DHT22;3827;49.928;8.548;2024-01-15T09:22:51;0.20;99.90
7572;DHT22;3827;49.928;8.548;2024-01-15T09:25:18;0.20;99.90
7572;DHT22;3827;49.928;8.548;2024-01-15T09:27:45;0.30;99.90
7572;DHT22;3827;49.928;8.548;2024-01-15T09:30:12;0.40;99.90
7572;DHT22;3827;49.928;8.548;2024-01-15T09:32:40;0.50;99.90
7572;DHT22;3827;49.928;8.548;2024-01-15T09:35:08;0.60;99.90
7572;DHT22;3827;49.928;8.548;2024-01-15T09:37:35;0.70;99.90
7572;DHT22;3827;49.928;8.548;2024-01-15T09:40:03;0.70;99.90
7572;DHT22;3827;49.928;8.548;2024-01-15T09:42:30;0.60;99.90
7572;DHT22;3827;49.928;8.548;2024-01-15T09:44:57;0.80;99.90
7572;DHT22;3827;49.928;8.548;2024-01-15T09:47:24;0.70;99.90
7572;DHT22;3827;49.928;8.548;2024-01-15T09:49:52;0.70;99.90
7572;DHT22;3827;49.928;8.548;2024-01-15T09:52:19;0.80;99.90
7572;DHT22;3827;49.928;8.548;2024-01-15T09:54:47;0.80;99.90
7572;DHT22;3827;49.928;8.548;2024-01-15T09:57:15;0.80;99.90
7572;DHT22;3827;49.928;8.548;2024-01-15T09:59:42;0.80;99.90
7572;DHT22;3827;49.928;8.548;2024-01-15T10:02:12;0.90;99.90
7572;DHT22;3827;49.928;8.548;2024-01-15T10:04:41;0.80;99.90
7572;DHT22;3827;49.928;8.548;2024-01-15T10:07:12;0.90;99.90
7572;DHT22;3827;49.928;8.548;2024-01-15T10:09:40;0.80;99.90
7572;DHT22;3827;49.928;8.548;2024-01-15T10:12:08;0.70;99.90
7572;DHT22;3827;49.928;8.548;2024-01-15T10:14:35;0.80;99.90
7572;DHT22;3827;49.928;8.548;2024-01-15T10:17:12;0.80;99.90
7572;DHT22;3827;49.928;8.548;2024-01-15T10:19:39;0.80;99.90
7572;DHT22;3827;49.928;8.548;2024-01-15T10:22:07;0.70;99.90
7572;DHT22;3827;49.928;8.548;2024-01-15T10:24:36;0.80;99.90
7572;DHT22;3827;49.928;8.548;2024-01-15T10:27:06;0.80;99.90
7572;DHT22;3827;49.928;8.548;2024-01-15T10:29:33;0.80;99.90
7572;DHT22;3827;49.928;8.548;2024-01-15T10:32:00;1.00;99.90
7572;DHT22;3827;49.928;8.548;2024-01-15T10:34:28;1.90;99.90
7572;DHT22;3827;49.928;8.548;2024-01-15T10:36:54;0.90;99.90
7572;DHT22;3827;49.928;8.548;2024-01-15T10:39:21;0.90;99.90
7572;DHT22;3827;49.928;8.548;2024-01-15T10:41:50;0.90;99.90
7572;DHT22;3827;49.928;8.548;2024-01-15T10:44:17;1.00;99.90
7572;DHT22;3827;49.928;8.548;2024-01-15T10:46:45;0.90;99.90
7572;DHT22;3827;49.928;8.548;2024-01-15T10:49:12;0.80;99.90
7572;DHT22;3827;49.928;8.548;2024-01-15T10:51:40;0.70;99.90
7572;DHT22;3827;49.928;8.548;2024-01-15T10:54:09;0.80;99.90
7572;DHT22;3827;49.928;8.548;2024-01-15T10:56:37;0.90;99.90
7572;DHT22;3827;49.928;8.548;2024-01-15T10:59:05;0.80;99.90
7572;DHT22;3827;49.928;8.548;2024-01-15T11:01:33;0.90;99.90
7572;DHT22;3827;49.928;8.548;2024-01-15T11:04:00;0.90;99.90
7572;DHT22;3827;49.928;8.548;2024-01-15T11:06:28;0.90;99.90
7572;DHT22;3827;49.928;8.548;2024-01-15T11:09:07;0.80;99.90
7572;DHT22;3827;49.928;8.548;2024-01-15T11:11:35;0.90;99.90
7572;DHT22;3827;49.928;8.548;2024-01-15T11:14:02;1.00;99.90
7572;DHT22;3827;49.928;8.548;2024-01-15T11:16:53;2.20;99.90
7572;DHT22;3827;49.928;8.548;2024-01-15T11:19:20;1.50;99.90
7572;DHT22;3827;49.928;8.548;2024-01-15T11:21:47;1.40;99.90
7572;DHT22;3827;49.928;8.548;2024-01-15T11:24:34;2.80;99.90
7572;DHT22;3827;49.928;8.548;2024-01-15T11:27:01;1.90;99.90
7572;DHT22;3827;49.928;8.548;2024-01-15T11:29:33;2.00;99.90
7572;DHT22;3827;49.928;8.548;2024-01-15T11:32:06;1.70;99.90
7572;DHT22;3827;49.928;8.548;2024-01-15T11:34:52;1.70;99.90
7572;DHT22;3827;49.928;8.548;2024-01-15T11:37:20;1.70;99.90
7572;DHT22;3827;49.928;8.548;2024-01-15T11:39:51;1.30;99.90
7572;DHT22;3827;49.928;8.548;2024-01-15T11:42:18;1.80;99.90
7572;DHT22;3827;49.928;8.548;2024-01-15T11:44:46;2.20;99.90
7572;DHT22;3827;49.928;8.548;2024-01-15T11:47:14;2.30;99.90
7572;DHT22;3827;49.928;8.548;2024-01-15T11:49:59;2.20;99.90
7572;DHT22;3827;49.928;8.548;2024-01-15T11:52:32;2.20;99.90
7572;DHT22;3827;49.928;8.548;2024-01-15T11:55:01;2.10;99.90
7572;DHT22;3827;49.928;8.548;2024-01-15T11:57:40;2.00;99.90
7572;DHT22;3827;49.928;8.548;2024-01-15T12:00:10;2.00;99.90
7572;DHT22;3827;49.928;8.548;2024-01-15T12:02:39;2.00;99.90
7572;DHT22;3827;49.928;8.548;2024-01-15T12:05:07;2.00;99.90
7572;DHT22;3827;49.928;8.548;2024-01-15T12:07:34;1.70;99.90
7572;DHT22;3827;49.928;8.548;2024-01-15T12:10:01;2.50;99.90
7572;DHT22;3827;49.928;8.548;2024-01-15T12:12:37;2.50;99.90
7572;DHT22;3827;49.928;8.548;2024-01-15T12:15:06;1.50;99.90
7572;DHT22;3827;49.928;8.548;2024-01-15T12:17:34;1.50;99.90
7572;DHT22;3827;49.928;8.548;2024-01-15T12:20:03;1.60;99.90
7572;DHT22;3827;49.928;8.548;2024-01-15T12:22:31;1.50;99.90
7572;DHT22;3827;49.928;8.548;2024-01-15T12:24:58;1.50;99.90
7572;DHT22;3827;49.928;8.548;2024-01-15T12:27:25;1.50;99.90
7572;DHT22;3827;49.928;8.548;2024-01-15T12:29:53;1.50;99.90
7572;DHT22;3827;49.928;8.548;2024-01-15T12:32:20;1.40;99.90
7572;DHT22;3827;49.928;8.548;2024-01-15T12:34:48;1.70;99.90
7572;DHT22;3827;49.928;8.548;2024-01-15T12:37:18;1.60;99.90
7572;DHT22;3827;49.928;8.548;2024-01-15T12:39:45;1.60;99.90
7572;DHT22;3827;49.928;8.548;2024-01-15T12:42:13;1.80;99.90
7572;DHT22;3827;49.928;8.548;2024-01-15T12:44:40;1.60;99.90
7572;DHT22;3827;49.928;8.548;2024-01-15T12:47:07;1.50;99.90
7572;DHT22;3827;49.928;8.548;2024-01-15T12:49:36;1.50;99.90
7572;DHT22;3827;49.928;8.548;2024-01-15T12:52:03;1.50;99.90
7572;DHT22;3827;49.928;8.548;2024-01-15T12:54:31;1.50;99.90
7572;DHT22;3827;49.928;8.548;2024-01-15T12:56:58;1.60;99.90
7572;DHT22;3827;49.928;8.548;2024-01-15T12:59:24;1.60;99.90
7572;DHT22;3827;49.928;8.548;2024-01-15T13:01:51;1.60;99.90
7572;DHT22;3827;49.928;8.548;2024-01-15T13:04:21;2.00;99.90
7572;DHT22;3827;49.928;8.548;2024-01-15T13:06:49;1.70;99.90
7572;DHT22;3827;49.928;8.548;2024-01-15T13:09:16;1.80;99.90
7572;DHT22;3827;49.928;8.548;2024-01-15T13:11:43;1.80;99.90
7572;DHT22;3827;49.928;8.548;2024-01-15T13:14:10;1.80;99.90
7572;DHT22;3827;49.928;8.548;2024-01-15T13:16:39;1.80;99.90
7572;DHT22;3827;49.928;8.548;2024-01-15T13:19:07;1.90;99.90
7572;DHT22;3827;49.928;8.548;2024-01-15T13:21:33;1.90;99.90
7572;DHT22;3827;49.928;8.548;2024-01-15T13:24:00;2.00;99.90
7572;DHT22;3827;49.928;8.548;2024-01-15T13:26:28;1.90;99.90
7572;DHT22;3827;49.928;8.548;2024-01-15T13:28:56;2.70;99.90
7572;DHT22;3827;49.928;8.548;2024-01-15T13:31:23;1.80;99.90
7572;DHT22;3827;49.928;8.548;2024-01-15T13:33:50;2.10;99.90
7572;DHT22;3827;49.928;8.548;2024-01-15T13:36:17;2.10;99.90
7572;DHT22;3827;49.928;8.548;2024-01-15T13:38:44;2.00;99.90
7572;DHT22;3827;49.928;8.548;2024-01-15T13:41:11;2.10;99.90
7572;DHT22;3827;49.928;8.548;2024-01-15T13:43:37;2.00;99.90
7572;DHT22;3827;49.928;8.548;2024-01-15T13:46:06;2.00;99.90
7572;DHT22;3827;49.928;8.548;2024-01-15T13:48:33;2.00;99.90
7572;DHT22;3827;49.928;8.548;2024-01-15T13:50:59;1.90;99.90
7572;DHT22;3827;49.928;8.548;2024-01-15T13:53:26;1.90;99.90
7572;DHT22;3827;49.928;8.548;2024-01-15T13:55:53;2.00;99.90
7572;DHT22;3827;49.928;8.548;2024-01-15T13:58:20;1.90;99.90
7572;DHT22;3827;49.928;8.548;2024-01-15T14:00:47;1.90;99.90
7572;DHT22;3827;49.928;8.548;2024-01-15T14:03:15;2.00;99.90
7572;DHT22;3827;49.928;8.548;2024-01-15T14:05:42;2.00;99.90
7572;DHT22;3827;49.928;8.548;2024-01-15T14:08:09;2.00;99.90
7572;DHT22;3827;49.928;8.548;2024-01-15T14:10:36;2.10;99.90
7572;DHT22;3827;49.928;8.548;2024-01-15T14:13:04;2.20;99.90
7572;DHT22;3827;49.928;8.548;2024-01-15T14:15:30;2.10;99.90
7572;DHT22;3827;49.928;8.548;2024-01-15T14:17:57;3.10;99.90
7572;DHT22;3827;49.928;8.548;2024-01-15T14:20:26;2.10;99.90
7572;DHT22;3827;49.928;8.548;2024-01-15T14:22:53;2.20;99.90
7572;DHT22;3827;49.928;8.548;2024-01-15T14:25:20;2.00;99.90
7572;DHT22;3827;49.928;8.548;2024-01-15T14:27:47;2.10;99.90
7572;DHT22;3827;49.928;8.548;2024-01-15T14:30:14;2.10;99.90
7572;DHT22;3827;49.928;8.548;2024-01-15T14:32:41;2.10;99.90
7572;DHT22;3827;49.928;8.548;2024-01-15T14:35:08;2.10;99.90
7572;DHT22;3827;49.928;8.548;2024-01-15T14:37:37;2.20;99.90
7572;DHT22;3827;49.928;8.548;2024-01-15T14:40:05;2.20;99.90
7572;DHT22;3827;49.928;8.548;2024-01-15T14:42:33;2.20;99.90
7572;DHT22;3827;49.928;8.548;2024-01-15T14:45:00;2.40;99.90
7572;DHT22;3827;49.928;8.548;2024-01-15T14:47:28;2.20;99.90
7572;DHT22;3827;49.928;8.548;2024-01-15T14:49:55;2.20;99.90
7572;DHT22;3827;49.928;8.548;2024-01-15T14:52:23;2.20;99.90
7572;DHT22;3827;49.928;8.548;2024-01-15T14:54:51;2.40;99.90
7572;DHT22;3827;49.928;8.548;2024-01-15T14:57:18;2.40;99.90
7572;DHT22;3827;49.928;8.548;2024-01-15T14:59:45;2.30;99.90
7572;DHT22;3827;49.928;8.548;2024-01-15T15:02:11;2.30;99.90
7572;DHT22;3827;49.928;8.548;2024-01-15T15:04:39;2.20;99.90
7572;DHT22;3827;49.928;8.548;2024-01-15T15:07:07;2.20;99.90
7572;DHT22;3827;49.928;8.548;2024-01-15T15:09:33;2.30;99.90
7572;DHT22;3827;49.928;8.548;2024-01-15T15:12:05;2.20;99.90
7572;DHT22;3827;49.928;8.548;2024-01-15T15:14:32;2.10;99.90
7572;DHT22;3827;49.928;8.548;2024-01-15T15:17:04;2.10;99.90
7572;DHT22;3827;49.928;8.548;2024-01-15T15:19:31;2.00;99.90
7572;DHT22;3827;49.928;8.548;2024-01-15T15:21:58;2.00;99.90
7572;DHT22;3827;49.928;8.548;2024-01-15T15:24:25;2.10;99.90
7572;DHT22;3827;49.928;8.548;2024-01-15T15:26:52;3.10;99.90
7572;DHT22;3827;49.928;8.548;2024-01-15T15:29:20;2.00;99.90
7572;DHT22;3827;49.928;8.548;2024-01-15T15:31:49;2.10;99.90
7572;DHT22;3827;49.928;8.548;2024-01-15T15:34:16;2.40;99.90
7572;DHT22;3827;49.928;8.548;2024-01-15T15:36:42;2.00;99.90
7572;DHT22;3827;49.928;8.548;2024-01-15T15:39:09;1.80;99.90
7572;DHT22;3827;49.928;8.548;2024-01-15T15:41:36;2.00;99.90
7572;DHT22;3827;49.928;8.548;2024-01-15T15:44:03;1.70;99.90
7572;DHT22;3827;49.928;8.548;2024-01-15T15:46:31;1.70;99.90
7572;DHT22;3827;49.928;8.548;2024-01-15T15:48:58;1.70;99.90
7572;DHT22;3827;49.928;8.548;2024-01-15T15:51:26;1.60;99.90
7572;DHT22;3827;49.928;8.548;2024-01-15T15:53:53;1.30;99.90
7572;DHT22;3827;49.928;8.548;2024-01-15T15:56:20;1.30;99.90
7572;DHT22;3827;49.928;8.548;2024-01-15T15:58:46;1.50;99.90
7572;DHT22;3827;49.928;8.548;2024-01-15T16:01:13;1.40;99.90
7572;DHT22;3827;49.928;8.548;2024-01-15T16:03:42;1.40;99.90
7572;DHT22;3827;49.928;8.548;2024-01-15T16:06:08;1.40;99.90
7572;DHT22;3827;49.928;8.548;2024-01-15T16:08:35;1.20;99.90
7572;DHT22;3827;49.928;8.548;2024-01-15T16:11:02;1.40;99.90